sensor_id;sensor_type;location;lat;lon;timestamp;P1;durP1;ratioP1;P2;durP2;ratioP2
21258;SDS011;10787;53.364;-1.480;2022-12-08T00:01:16;8.60;;;4.80;;
21258;SDS011;10787;53.364;-1.480;2022-12-08T00:03:44;7.53;;;3.83;;
21258;SDS011;10787;53.364;-1.480;2022-12-08T00:06:52;14.73;;;6.00;;
21258;SDS011;10787;53.364;-1.480;2022-12-08T00:09:33;5.17;;;2.10;;
21258;SDS011;10787;53.364;-1.480;2022-12-08T00:12:04;4.23;;;1.57;;
21258;SDS011;10787;53.364;-1.480;2022-12-08T00:14:33;2.60;;;1.17;;
21258;SDS011;10787;53.364;-1.480;2022-12-08T00:17:00;3.63;;;1.20;;
21258;SDS011;10787;53.364;-1.480;2022-12-08T00:19:27;2.73;;;1.00;;
21258;SDS011;10787;53.364;-1.480;2022-12-08T00:21:54;1.60;;;0.87;;
21258;SDS011;10787;53.364;-1.480;2022-12-08T00:24:21;3.70;;;1.17;;
21258;SDS011;10787;53.364;-1.480;2022-12-08T00:26:49;2.83;;;1.00;;
21258;SDS011;10787;53.364;-1.480;2022-12-08T00:29:15;3.80;;;1.40;;
21258;SDS011;10787;53.364;-1.480;2022-12-08T00:31:41;2.67;;;1.10;;
21258;SDS011;10787;53.364;-1.480;2022-12-08T00:34:07;4.03;;;1.60;;
21258;SDS011;10787;53.364;-1.480;2022-12-08T00:36:33;7.70;;;3.50;;
21258;SDS011;10787;53.364;-1.480;2022-12-08T00:38:59;5.77;;;1.90;;
21258;SDS011;10787;53.364;-1.480;2022-12-08T00:41:26;6.57;;;2.20;;
21258;SDS011;10787;53.364;-1.480;2022-12-08T00:44:12;2.47;;;0.90;;
21258;SDS011;10787;53.364;-1.480;2022-12-08T00:46:41;2.33;;;0.80;;
21258;SDS011;10787;53.364;-1.480;2022-12-08T00:49:07;3.77;;;0.80;;
21258;SDS011;10787;53.364;-1.480;2022-12-08T00:51:36;1.63;;;0.80;;
21258;SDS011;10787;53.364;-1.480;2022-12-08T00:54:02;2.17;;;0.80;;
21258;SDS011;10787;53.364;-1.480;2022-12-08T00:56:29;2.00;;;0.80;;
21258;SDS011;10787;53.364;-1.480;2022-12-08T00:58:55;2.90;;;0.90;;
21258;SDS011;10787;53.364;-1.480;2022-12-08T01:01:22;4.43;;;1.03;;
21258;SDS011;10787;53.364;-1.480;2022-12-08T01:03:48;2.10;;;1.00;;
21258;SDS011;10787;53.364;-1.480;2022-12-08T01:06:14;2.30;;;0.80;;
21258;SDS011;10787;53.364;-1.480;2022-12-08T01:08:40;2.27;;;1.03;;
21258;SDS011;10787;53.364;-1.480;2022-12-08T01:11:08;2.37;;;1.00;;
21258;SDS011;10787;53.364;-1.480;2022-12-08T01:13:36;3.37;;;1.20;;
21258;SDS011;10787;53.364;-1.480;2022-12-08T01:16:03;1.80;;;0.87;;
21258;SDS011;10787;53.364;-1.480;2022-12-08T01:18:29;2.70;;;0.93;;
21258;SDS011;10787;53.364;-1.480;2022-12-08T01:21:00;2.83;;;1.20;;
21258;SDS011;10787;53.364;-1.480;2022-12-08T01:23:27;2.63;;;0.90;;
21258;SDS011;10787;53.364;-1.480;2022-12-08T01:25:53;3.83;;;0.97;;
21258;SDS011;10787;53.364;-1.480;2022-12-08T01:28:19;4.17;;;0.90;;
21258;SDS011;10787;53.364;-1.480;2022-12-08T01:30:44;1.47;;;0.70;;
21258;SDS011;10787;53.364;-1.480;2022-12-08T01:33:10;1.93;;;0.90;;
21258;SDS011;10787;53.364;-1.480;2022-12-08T01:35:36;2.87;;;1.00;;
21258;SDS011;10787;53.364;-1.480;2022-12-08T01:38:04;2.20;;;0.80;;
21258;SDS011;10787;53.364;-1.480;2022-12-08T01:40:30;2.77;;;0.80;;
21258;SDS011;10787;53.364;-1.480;2022-12-08T01:42:56;2.97;;;0.90;;
21258;SDS011;10787;53.364;-1.480;2022-12-08T01:45:24;2.80;;;0.80;;
21258;SDS011;10787;53.364;-1.480;2022-12-08T01:47:53;2.50;;;0.77;;
21258;SDS011;10787;53.364;-1.480;2022-12-08T01:50:26;2.57;;;0.90;;
21258;SDS011;10787;53.364;-1.480;2022-12-08T01:52:57;3.30;;;0.80;;
21258;SDS011;10787;53.364;-1.480;2022-12-08T01:55:46;2.40;;;0.73;;
21258;SDS011;10787;53.364;-1.480;2022-12-08T01:58:26;2.27;;;0.70;;
21258;SDS011;10787;53.364;-1.480;2022-12-08T02:00:52;2.27;;;0.63;;
21258;SDS011;10787;53.364;-1.480;2022-12-08T02:03:23;1.40;;;0.60;;
21258;SDS011;10787;53.364;-1.480;2022-12-08T02:06:01;1.80;;;0.70;;
21258;SDS011;10787;53.364;-1.480;2022-12-08T02:08:39;2.57;;;0.70;;
21258;SDS011;10787;53.364;-1.480;2022-12-08T02:11:09;2.60;;;0.77;;
21258;SDS011;10787;53.364;-1.480;2022-12-08T02:13:36;2.27;;;0.70;;
21258;SDS011;10787;53.364;-1.480;2022-12-08T02:16:11;3.20;;;0.70;;
21258;SDS011;10787;53.364;-1.480;2022-12-08T02:21:28;4.40;;;0.70;;
21258;SDS011;10787;53.364;-1.480;2022-12-08T02:38:07;1.30;;;0.80;;
21258;SDS011;10787;53.364;-1.480;2022-12-08T02:44:11;3.43;;;0.90;;
21258;SDS011;10787;53.364;-1.480;2022-12-08T02:46:31;2.43;;;0.90;;
21258;SDS011;10787;53.364;-1.480;2022-12-08T02:49:02;3.27;;;1.30;;
21258;SDS011;10787;53.364;-1.480;2022-12-08T02:51:29;4.00;;;0.70;;
21258;SDS011;10787;53.364;-1.480;2022-12-08T02:53:55;3.10;;;0.80;;
21258;SDS011;10787;53.364;-1.480;2022-12-08T03:07:44;2.13;;;0.70;;
21258;SDS011;10787;53.364;-1.480;2022-12-08T03:10:19;1.37;;;0.70;;
21258;SDS011;10787;53.364;-1.480;2022-12-08T03:13:01;2.97;;;0.80;;
21258;SDS011;10787;53.364;-1.480;2022-12-08T03:15:28;4.50;;;1.00;;
21258;SDS011;10787;53.364;-1.480;2022-12-08T03:17:56;2.37;;;0.77;;
21258;SDS011;10787;53.364;-1.480;2022-12-08T03:20:24;1.50;;;0.70;;
21258;SDS011;10787;53.364;-1.480;2022-12-08T03:22:52;2.90;;;0.80;;
21258;SDS011;10787;53.364;-1.480;2022-12-08T03:25:23;1.77;;;0.70;;
21258;SDS011;10787;53.364;-1.480;2022-12-08T03:27:58;3.20;;;0.80;;
21258;SDS011;10787;53.364;-1.480;2022-12-08T03:30:25;2.17;;;0.70;;
21258;SDS011;10787;53.364;-1.480;2022-12-08T03:32:54;1.43;;;0.70;;
21258;SDS011;10787;53.364;-1.480;2022-12-08T03:35:26;2.17;;;0.60;;
21258;SDS011;10787;53.364;-1.480;2022-12-08T03:38:02;1.80;;;0.90;;
21258;SDS011;10787;53.364;-1.480;2022-12-08T03:40:33;2.87;;;0.90;;
21258;SDS011;10787;53.364;-1.480;2022-12-08T03:42:59;1.40;;;0.80;;
21258;SDS011;10787;53.364;-1.480;2022-12-08T03:45:25;1.70;;;0.73;;
21258;SDS011;10787;53.364;-1.480;2022-12-08T03:47:50;1.30;;;0.70;;
21258;SDS011;10787;53.364;-1.480;2022-12-08T03:50:16;1.93;;;0.70;;
21258;SDS011;10787;53.364;-1.480;2022-12-08T03:52:44;3.47;;;1.00;;
21258;SDS011;10787;53.364;-1.480;2022-12-08T03:55:10;2.90;;;0.80;;
21258;SDS011;10787;53.364;-1.480;2022-12-08T03:57:37;2.40;;;0.97;;
21258;SDS011;10787;53.364;-1.480;2022-12-08T04:00:03;1.90;;;0.90;;
21258;SDS011;10787;53.364;-1.480;2022-12-08T04:02:30;2.20;;;0.90;;
21258;SDS011;10787;53.364;-1.480;2022-12-08T04:04:56;3.47;;;0.80;;
21258;SDS011;10787;53.364;-1.480;2022-12-08T04:07:23;2.60;;;0.90;;
21258;SDS011;10787;53.364;-1.480;2022-12-08T04:09:48;3.33;;;0.90;;
21258;SDS011;10787;53.364;-1.480;2022-12-08T04:12:14;1.43;;;0.80;;
21258;SDS011;10787;53.364;-1.480;2022-12-08T04:14:40;1.67;;;0.67;;
21258;SDS011;10787;53.364;-1.480;2022-12-08T04:17:06;2.00;;;0.90;;
21258;SDS011;10787;53.364;-1.480;2022-12-08T04:19:32;1.23;;;0.80;;
21258;SDS011;10787;53.364;-1.480;2022-12-08T04:21:57;3.67;;;0.90;;
21258;SDS011;10787;53.364;-1.480;2022-12-08T04:24:23;3.10;;;1.00;;
21258;SDS011;10787;53.364;-1.480;2022-12-08T04:26:49;2.70;;;0.90;;
21258;SDS011;10787;53.364;-1.480;2022-12-08T04:29:15;3.97;;;1.10;;
21258;SDS011;10787;53.364;-1.480;2022-12-08T04:31:41;2.67;;;1.30;;
21258;SDS011;10787;53.364;-1.480;2022-12-08T04:34:07;1.60;;;1.00;;
21258;SDS011;10787;53.364;-1.480;2022-12-08T04:36:33;2.73;;;1.13;;
21258;SDS011;10787;53.364;-1.480;2022-12-08T04:38:59;2.70;;;1.20;;
21258;SDS011;10787;53.364;-1.480;2022-12-08T04:41:25;2.40;;;1.30;;
21258;SDS011;10787;53.364;-1.480;2022-12-08T04:43:50;3.70;;;1.30;;
21258;SDS011;10787;53.364;-1.480;2022-12-08T04:46:16;2.60;;;1.30;;
21258;SDS011;10787;53.364;-1.480;2022-12-08T04:48:42;2.30;;;1.30;;
21258;SDS011;10787;53.364;-1.480;2022-12-08T04:51:13;3.70;;;1.33;;
21258;SDS011;10787;53.364;-1.480;2022-12-08T04:53:45;3.67;;;1.40;;
21258;SDS011;10787;53.364;-1.480;2022-12-08T04:56:12;2.67;;;1.30;;
21258;SDS011;10787;53.364;-1.480;2022-12-08T04:58:39;2.70;;;1.30;;
21258;SDS011;10787;53.364;-1.480;2022-12-08T05:01:05;3.00;;;1.50;;
21258;SDS011;10787;53.364;-1.480;2022-12-08T05:03:31;2.83;;;1.53;;
21258;SDS011;10787;53.364;-1.480;2022-12-08T05:06:00;2.57;;;1.20;;
21258;SDS011;10787;53.364;-1.480;2022-12-08T05:08:26;2.53;;;1.20;;
21258;SDS011;10787;53.364;-1.480;2022-12-08T05:10:52;3.60;;;1.67;;
21258;SDS011;10787;53.364;-1.480;2022-12-08T05:13:18;3.57;;;1.70;;
21258;SDS011;10787;53.364;-1.480;2022-12-08T05:15:44;2.73;;;1.27;;
21258;SDS011;10787;53.364;-1.480;2022-12-08T05:18:09;3.50;;;1.17;;
21258;SDS011;10787;53.364;-1.480;2022-12-08T05:20:35;3.37;;;1.47;;
21258;SDS011;10787;53.364;-1.480;2022-12-08T05:23:01;3.43;;;1.50;;
21258;SDS011;10787;53.364;-1.480;2022-12-08T05:25:27;2.10;;;1.23;;
21258;SDS011;10787;53.364;-1.480;2022-12-08T05:27:53;2.80;;;1.30;;
21258;SDS011;10787;53.364;-1.480;2022-12-08T05:30:19;2.13;;;1.30;;
21258;SDS011;10787;53.364;-1.480;2022-12-08T05:32:45;5.03;;;1.60;;
21258;SDS011;10787;53.364;-1.480;2022-12-08T05:35:26;3.47;;;1.70;;
21258;SDS011;10787;53.364;-1.480;2022-12-08T05:37:52;3.30;;;1.70;;
21258;SDS011;10787;53.364;-1.480;2022-12-08T05:40:18;3.67;;;1.60;;
21258;SDS011;10787;53.364;-1.480;2022-12-08T05:42:45;4.03;;;2.00;;
21258;SDS011;10787;53.364;-1.480;2022-12-08T05:45:11;3.93;;;1.80;;
21258;SDS011;10787;53.364;-1.480;2022-12-08T05:47:37;5.70;;;1.90;;
21258;SDS011;10787;53.364;-1.480;2022-12-08T05:50:03;6.50;;;2.20;;
21258;SDS011;10787;53.364;-1.480;2022-12-08T05:52:30;3.93;;;2.10;;
21258;SDS011;10787;53.364;-1.480;2022-12-08T05:54:56;4.17;;;1.83;;
21258;SDS011;10787;53.364;-1.480;2022-12-08T05:57:22;4.20;;;1.73;;
21258;SDS011;10787;53.364;-1.480;2022-12-08T05:59:48;3.93;;;1.83;;
21258;SDS011;10787;53.364;-1.480;2022-12-08T06:02:14;3.80;;;2.13;;
21258;SDS011;10787;53.364;-1.480;2022-12-08T06:04:40;4.63;;;2.10;;
21258;SDS011;10787;53.364;-1.480;2022-12-08T06:07:07;5.67;;;2.20;;
21258;SDS011;10787;53.364;-1.480;2022-12-08T06:09:33;4.53;;;2.17;;
21258;SDS011;10787;53.364;-1.480;2022-12-08T06:11:59;5.10;;;2.67;;
21258;SDS011;10787;53.364;-1.480;2022-12-08T06:14:25;4.73;;;2.30;;
21258;SDS011;10787;53.364;-1.480;2022-12-08T06:16:51;3.67;;;2.00;;
21258;SDS011;10787;53.364;-1.480;2022-12-08T06:19:17;5.90;;;2.70;;
21258;SDS011;10787;53.364;-1.480;2022-12-08T06:21:44;4.73;;;2.30;;
21258;SDS011;10787;53.364;-1.480;2022-12-08T06:24:10;6.47;;;2.83;;
21258;SDS011;10787;53.364;-1.480;2022-12-08T06:26:36;8.13;;;3.00;;
21258;SDS011;10787;53.364;-1.480;2022-12-08T06:29:02;6.20;;;2.63;;
21258;SDS011;10787;53.364;-1.480;2022-12-08T06:31:29;8.87;;;2.80;;
21258;SDS011;10787;53.364;-1.480;2022-12-08T06:33:54;5.50;;;2.60;;
21258;SDS011;10787;53.364;-1.480;2022-12-08T06:36:21;8.13;;;2.90;;
21258;SDS011;10787;53.364;-1.480;2022-12-08T06:38:49;10.07;;;2.93;;
21258;SDS011;10787;53.364;-1.480;2022-12-08T06:41:15;6.27;;;2.80;;
21258;SDS011;10787;53.364;-1.480;2022-12-08T06:43:42;7.03;;;2.90;;
21258;SDS011;10787;53.364;-1.480;2022-12-08T06:46:10;8.40;;;2.97;;
21258;SDS011;10787;53.364;-1.480;2022-12-08T06:48:38;6.27;;;3.00;;
21258;SDS011;10787;53.364;-1.480;2022-12-08T06:51:08;7.73;;;3.27;;
21258;SDS011;10787;53.364;-1.480;2022-12-08T06:53:41;9.27;;;3.60;;
21258;SDS011;10787;53.364;-1.480;2022-12-08T06:56:08;6.40;;;2.90;;
21258;SDS011;10787;53.364;-1.480;2022-12-08T06:58:35;5.90;;;2.90;;
21258;SDS011;10787;53.364;-1.480;2022-12-08T07:01:08;4.87;;;2.60;;
21258;SDS011;10787;53.364;-1.480;2022-12-08T07:03:35;5.70;;;2.60;;
21258;SDS011;10787;53.364;-1.480;2022-12-08T07:06:03;5.43;;;2.73;;
21258;SDS011;10787;53.364;-1.480;2022-12-08T07:08:30;7.03;;;3.27;;
21258;SDS011;10787;53.364;-1.480;2022-12-08T07:10:56;6.53;;;3.20;;
21258;SDS011;10787;53.364;-1.480;2022-12-08T07:13:22;8.53;;;3.43;;
21258;SDS011;10787;53.364;-1.480;2022-12-08T07:15:48;9.20;;;4.23;;
21258;SDS011;10787;53.364;-1.480;2022-12-08T07:18:14;9.47;;;4.23;;
21258;SDS011;10787;53.364;-1.480;2022-12-08T07:20:40;8.70;;;3.90;;
21258;SDS011;10787;53.364;-1.480;2022-12-08T07:23:06;11.17;;;4.97;;
21258;SDS011;10787;53.364;-1.480;2022-12-08T07:25:32;12.20;;;5.63;;
21258;SDS011;10787;53.364;-1.480;2022-12-08T07:27:58;10.07;;;5.47;;
21258;SDS011;10787;53.364;-1.480;2022-12-08T07:30:24;8.63;;;4.00;;
21258;SDS011;10787;53.364;-1.480;2022-12-08T07:32:49;7.93;;;4.70;;
21258;SDS011;10787;53.364;-1.480;2022-12-08T07:35:15;10.83;;;5.30;;
21258;SDS011;10787;53.364;-1.480;2022-12-08T07:37:41;9.33;;;4.50;;
21258;SDS011;10787;53.364;-1.480;2022-12-08T07:40:08;10.20;;;5.00;;
21258;SDS011;10787;53.364;-1.480;2022-12-08T07:42:34;9.10;;;5.13;;
21258;SDS011;10787;53.364;-1.480;2022-12-08T07:45:00;12.30;;;5.73;;
21258;SDS011;10787;53.364;-1.480;2022-12-08T07:47:26;10.77;;;5.40;;
21258;SDS011;10787;53.364;-1.480;2022-12-08T07:49:52;10.80;;;5.40;;
21258;SDS011;10787;53.364;-1.480;2022-12-08T07:52:18;15.50;;;7.20;;
21258;SDS011;10787;53.364;-1.480;2022-12-08T07:54:44;13.27;;;7.10;;
21258;SDS011;10787;53.364;-1.480;2022-12-08T07:57:10;6.60;;;2.77;;
21258;SDS011;10787;53.364;-1.480;2022-12-08T07:59:35;6.63;;;3.03;;
21258;SDS011;10787;53.364;-1.480;2022-12-08T08:02:02;5.87;;;3.23;;
21258;SDS011;10787;53.364;-1.480;2022-12-08T08:04:27;7.63;;;4.30;;
21258;SDS011;10787;53.364;-1.480;2022-12-08T08:06:53;15.30;;;8.47;;
21258;SDS011;10787;53.364;-1.480;2022-12-08T08:09:19;18.67;;;10.43;;
21258;SDS011;10787;53.364;-1.480;2022-12-08T08:11:45;18.13;;;9.20;;
21258;SDS011;10787;53.364;-1.480;2022-12-08T08:14:11;13.13;;;7.17;;
21258;SDS011;10787;53.364;-1.480;2022-12-08T08:16:36;16.60;;;8.63;;
21258;SDS011;10787;53.364;-1.480;2022-12-08T08:19:02;10.93;;;5.87;;
21258;SDS011;10787;53.364;-1.480;2022-12-08T08:21:28;12.83;;;5.30;;
21258;SDS011;10787;53.364;-1.480;2022-12-08T08:23:54;16.33;;;6.43;;
21258;SDS011;10787;53.364;-1.480;2022-12-08T08:26:19;12.10;;;6.00;;
21258;SDS011;10787;53.364;-1.480;2022-12-08T08:28:45;11.10;;;6.13;;
21258;SDS011;10787;53.364;-1.480;2022-12-08T08:31:12;9.70;;;5.57;;
21258;SDS011;10787;53.364;-1.480;2022-12-08T08:33:38;10.17;;;5.13;;
21258;SDS011;10787;53.364;-1.480;2022-12-08T08:36:07;10.87;;;5.77;;
21258;SDS011;10787;53.364;-1.480;2022-12-08T08:38:34;10.70;;;5.83;;
21258;SDS011;10787;53.364;-1.480;2022-12-08T08:41:08;12.67;;;6.73;;
21258;SDS011;10787;53.364;-1.480;2022-12-08T08:43:35;19.33;;;8.77;;
21258;SDS011;10787;53.364;-1.480;2022-12-08T08:46:01;24.43;;;11.57;;
21258;SDS011;10787;53.364;-1.480;2022-12-08T08:48:29;21.07;;;10.30;;
21258;SDS011;10787;53.364;-1.480;2022-12-08T08:50:56;19.90;;;9.83;;
21258;SDS011;10787;53.364;-1.480;2022-12-08T08:53:22;22.40;;;10.40;;
21258;SDS011;10787;53.364;-1.480;2022-12-08T08:55:49;18.60;;;9.63;;
21258;SDS011;10787;53.364;-1.480;2022-12-08T08:58:16;20.53;;;10.10;;
21258;SDS011;10787;53.364;-1.480;2022-12-08T09:00:42;16.00;;;8.70;;
21258;SDS011;10787;53.364;-1.480;2022-12-08T09:03:08;15.37;;;7.80;;
21258;SDS011;10787;53.364;-1.480;2022-12-08T09:05:36;20.00;;;11.27;;
21258;SDS011;10787;53.364;-1.480;2022-12-08T09:08:04;24.03;;;11.57;;
21258;SDS011;10787;53.364;-1.480;2022-12-08T09:10:30;20.10;;;9.60;;
21258;SDS011;10787;53.364;-1.480;2022-12-08T09:12:56;17.10;;;7.80;;
21258;SDS011;10787;53.364;-1.480;2022-12-08T09:15:22;18.57;;;10.10;;
21258;SDS011;10787;53.364;-1.480;2022-12-08T09:17:48;18.33;;;9.20;;
21258;SDS011;10787;53.364;-1.480;2022-12-08T09:20:14;22.83;;;10.17;;
21258;SDS011;10787;53.364;-1.480;2022-12-08T09:22:39;21.30;;;9.33;;
21258;SDS011;10787;53.364;-1.480;2022-12-08T09:25:06;26.83;;;10.83;;
21258;SDS011;10787;53.364;-1.480;2022-12-08T09:27:32;19.93;;;9.67;;
21258;SDS011;10787;53.364;-1.480;2022-12-08T09:29:58;17.40;;;8.90;;
21258;SDS011;10787;53.364;-1.480;2022-12-08T09:32:24;19.47;;;7.73;;
21258;SDS011;10787;53.364;-1.480;2022-12-08T09:34:50;16.37;;;8.30;;
21258;SDS011;10787;53.364;-1.480;2022-12-08T09:37:16;14.50;;;7.43;;
21258;SDS011;10787;53.364;-1.480;2022-12-08T09:39:42;13.30;;;6.73;;
21258;SDS011;10787;53.364;-1.480;2022-12-08T09:42:08;16.50;;;7.27;;
21258;SDS011;10787;53.364;-1.480;2022-12-08T09:50:12;16.70;;;7.87;;
21258;SDS011;10787;53.364;-1.480;2022-12-08T09:52:40;15.53;;;7.50;;
21258;SDS011;10787;53.364;-1.480;2022-12-08T09:55:24;16.93;;;7.33;;
21258;SDS011;10787;53.364;-1.480;2022-12-08T09:57:59;19.03;;;8.27;;
21258;SDS011;10787;53.364;-1.480;2022-12-08T10:00:27;18.03;;;7.67;;
21258;SDS011;10787;53.364;-1.480;2022-12-08T10:02:54;15.17;;;7.43;;
21258;SDS011;10787;53.364;-1.480;2022-12-08T10:05:20;17.87;;;8.87;;
21258;SDS011;10787;53.364;-1.480;2022-12-08T10:10:48;23.97;;;8.47;;
21258;SDS011;10787;53.364;-1.480;2022-12-08T10:16:41;19.53;;;8.20;;
21258;SDS011;10787;53.364;-1.480;2022-12-08T10:19:13;16.80;;;8.00;;
21258;SDS011;10787;53.364;-1.480;2022-12-08T10:21:40;18.33;;;7.50;;
21258;SDS011;10787;53.364;-1.480;2022-12-08T10:26:57;5.87;;;3.10;;
21258;SDS011;10787;53.364;-1.480;2022-12-08T10:29:24;6.50;;;3.17;;
21258;SDS011;10787;53.364;-1.480;2022-12-08T10:31:50;9.83;;;4.07;;
21258;SDS011;10787;53.364;-1.480;2022-12-08T10:34:20;12.93;;;5.80;;
21258;SDS011;10787;53.364;-1.480;2022-12-08T10:36:53;16.57;;;6.33;;
21258;SDS011;10787;53.364;-1.480;2022-12-08T10:39:37;13.63;;;5.93;;
21258;SDS011;10787;53.364;-1.480;2022-12-08T10:42:12;13.27;;;5.43;;
21258;SDS011;10787;53.364;-1.480;2022-12-08T10:45:26;12.87;;;5.57;;
21258;SDS011;10787;53.364;-1.480;2022-12-08T10:47:36;11.47;;;5.50;;
21258;SDS011;10787;53.364;-1.480;2022-12-08T10:50:15;9.60;;;5.10;;
21258;SDS011;10787;53.364;-1.480;2022-12-08T10:52:43;10.20;;;4.70;;
21258;SDS011;10787;53.364;-1.480;2022-12-08T10:55:14;9.60;;;4.10;;
21258;SDS011;10787;53.364;-1.480;2022-12-08T10:57:44;7.93;;;3.93;;
21258;SDS011;10787;53.364;-1.480;2022-12-08T11:00:17;10.10;;;4.20;;
21258;SDS011;10787;53.364;-1.480;2022-12-08T11:03:01;8.37;;;3.50;;
21258;SDS011;10787;53.364;-1.480;2022-12-08T11:05:32;7.43;;;3.20;;
21258;SDS011;10787;53.364;-1.480;2022-12-08T11:08:00;8.80;;;3.20;;
21258;SDS011;10787;53.364;-1.480;2022-12-08T11:10:32;7.10;;;3.30;;
21258;SDS011;10787;53.364;-1.480;2022-12-08T11:13:09;7.10;;;3.10;;
21258;SDS011;10787;53.364;-1.480;2022-12-08T11:15:52;4.13;;;1.90;;
21258;SDS011;10787;53.364;-1.480;2022-12-08T11:18:20;4.63;;;1.50;;
21258;SDS011;10787;53.364;-1.480;2022-12-08T11:20:57;4.47;;;1.50;;
21258;SDS011;10787;53.364;-1.480;2022-12-08T11:23:34;5.43;;;1.67;;
21258;SDS011;10787;53.364;-1.480;2022-12-08T11:26:05;3.33;;;1.40;;
21258;SDS011;10787;53.364;-1.480;2022-12-08T11:28:38;3.77;;;1.70;;
21258;SDS011;10787;53.364;-1.480;2022-12-08T11:31:07;4.50;;;1.33;;
21258;SDS011;10787;53.364;-1.480;2022-12-08T11:33:59;4.07;;;1.60;;
21258;SDS011;10787;53.364;-1.480;2022-12-08T11:36:27;4.33;;;1.60;;
21258;SDS011;10787;53.364;-1.480;2022-12-08T11:38:59;3.67;;;1.50;;
21258;SDS011;10787;53.364;-1.480;2022-12-08T11:41:30;4.53;;;1.67;;
21258;SDS011;10787;53.364;-1.480;2022-12-08T11:47:09;3.63;;;1.40;;
21258;SDS011;10787;53.364;-1.480;2022-12-08T11:49:40;3.50;;;1.27;;
21258;SDS011;10787;53.364;-1.480;2022-12-08T11:53:07;7.65;;;3.95;;
21258;SDS011;10787;53.364;-1.480;2022-12-08T11:55:17;3.40;;;1.70;;
21258;SDS011;10787;53.364;-1.480;2022-12-08T11:58:01;3.70;;;2.00;;
21258;SDS011;10787;53.364;-1.480;2022-12-08T12:00:55;3.13;;;1.10;;
21258;SDS011;10787;53.364;-1.480;2022-12-08T12:06:25;3.83;;;1.60;;
21258;SDS011;10787;53.364;-1.480;2022-12-08T12:14:38;1.90;;;1.08;;
21258;SDS011;10787;53.364;-1.480;2022-12-08T12:19:51;3.42;;;1.30;;
21258;SDS011;10787;53.364;-1.480;2022-12-08T12:22:19;3.80;;;1.17;;
21258;SDS011;10787;53.364;-1.480;2022-12-08T12:24:48;2.90;;;1.10;;
21258;SDS011;10787;53.364;-1.480;2022-12-08T12:29:44;1.88;;;1.13;;
21258;SDS011;10787;53.364;-1.480;2022-12-08T12:32:14;4.03;;;1.10;;
21258;SDS011;10787;53.364;-1.480;2022-12-08T12:34:45;3.53;;;0.98;;
21258;SDS011;10787;53.364;-1.480;2022-12-08T12:37:21;4.78;;;1.27;;
21258;SDS011;10787;53.364;-1.480;2022-12-08T12:40:16;1.98;;;1.00;;
21258;SDS011;10787;53.364;-1.480;2022-12-08T12:55:50;2.58;;;0.90;;
21258;SDS011;10787;53.364;-1.480;2022-12-08T13:03:34;2.97;;;1.10;;
21258;SDS011;10787;53.364;-1.480;2022-12-08T13:06:01;2.25;;;1.10;;
21258;SDS011;10787;53.364;-1.480;2022-12-08T13:08:27;3.50;;;1.40;;
21258;SDS011;10787;53.364;-1.480;2022-12-08T13:10:58;3.72;;;1.30;;
21258;SDS011;10787;53.364;-1.480;2022-12-08T13:13:28;3.75;;;1.20;;
21258;SDS011;10787;53.364;-1.480;2022-12-08T13:16:00;4.53;;;1.10;;
21258;SDS011;10787;53.364;-1.480;2022-12-08T13:18:51;5.20;;;1.20;;
21258;SDS011;10787;53.364;-1.480;2022-12-08T13:21:22;2.30;;;1.08;;
21258;SDS011;10787;53.364;-1.480;2022-12-08T13:26:44;6.40;;;0.90;;
21258;SDS011;10787;53.364;-1.480;2022-12-08T13:29:13;3.58;;;1.10;;
21258;SDS011;10787;53.364;-1.480;2022-12-08T13:37:10;2.40;;;1.10;;
21258;SDS011;10787;53.364;-1.480;2022-12-08T13:44:54;3.45;;;1.00;;
21258;SDS011;10787;53.364;-1.480;2022-12-08T13:47:34;2.20;;;1.10;;
21258;SDS011;10787;53.364;-1.480;2022-12-08T13:52:45;3.70;;;1.50;;
21258;SDS011;10787;53.364;-1.480;2022-12-08T13:56:08;1.80;;;1.02;;
21258;SDS011;10787;53.364;-1.480;2022-12-08T13:58:28;1.73;;;1.15;;
21258;SDS011;10787;53.364;-1.480;2022-12-08T14:01:05;2.88;;;1.25;;
21258;SDS011;10787;53.364;-1.480;2022-12-08T14:03:33;3.67;;;1.30;;
21258;SDS011;10787;53.364;-1.480;2022-12-08T14:06:12;2.85;;;1.25;;
21258;SDS011;10787;53.364;-1.480;2022-12-08T14:08:39;2.08;;;1.15;;
21258;SDS011;10787;53.364;-1.480;2022-12-08T14:11:07;7.47;;;1.60;;
21258;SDS011;10787;53.364;-1.480;2022-12-08T14:14:59;2.60;;;1.40;;
21258;SDS011;10787;53.364;-1.480;2022-12-08T14:16:55;5.53;;;1.95;;
21258;SDS011;10787;53.364;-1.480;2022-12-08T14:19:32;3.47;;;1.63;;
21258;SDS011;10787;53.364;-1.480;2022-12-08T14:22:00;4.32;;;2.22;;
21258;SDS011;10787;53.364;-1.480;2022-12-08T14:24:37;4.43;;;2.10;;
21258;SDS011;10787;53.364;-1.480;2022-12-08T14:27:04;4.32;;;1.50;;
21258;SDS011;10787;53.364;-1.480;2022-12-08T14:30:16;5.40;;;2.92;;
21258;SDS011;10787;53.364;-1.480;2022-12-08T14:32:35;3.47;;;1.70;;
21258;SDS011;10787;53.364;-1.480;2022-12-08T14:37:33;3.67;;;1.73;;
21258;SDS011;10787;53.364;-1.480;2022-12-08T14:40:04;5.28;;;3.03;;
21258;SDS011;10787;53.364;-1.480;2022-12-08T14:42:43;4.10;;;2.22;;
21258;SDS011;10787;53.364;-1.480;2022-12-08T14:45:11;6.15;;;2.60;;
21258;SDS011;10787;53.364;-1.480;2022-12-08T14:47:40;7.53;;;1.92;;
21258;SDS011;10787;53.364;-1.480;2022-12-08T14:52:57;2.92;;;1.50;;
21258;SDS011;10787;53.364;-1.480;2022-12-08T14:55:23;7.25;;;3.33;;
21258;SDS011;10787;53.364;-1.480;2022-12-08T14:57:49;3.95;;;1.70;;
21258;SDS011;10787;53.364;-1.480;2022-12-08T15:00:19;7.93;;;4.63;;
21258;SDS011;10787;53.364;-1.480;2022-12-08T15:02:46;5.75;;;2.30;;
21258;SDS011;10787;53.364;-1.480;2022-12-08T15:05:14;5.75;;;1.67;;
21258;SDS011;10787;53.364;-1.480;2022-12-08T15:07:49;2.85;;;1.35;;
21258;SDS011;10787;53.364;-1.480;2022-12-08T15:10:25;6.53;;;1.80;;
21258;SDS011;10787;53.364;-1.480;2022-12-08T15:12:58;5.83;;;1.60;;
21258;SDS011;10787;53.364;-1.480;2022-12-08T15:15:27;5.37;;;2.10;;
21258;SDS011;10787;53.364;-1.480;2022-12-08T15:18:00;4.83;;;1.80;;
21258;SDS011;10787;53.364;-1.480;2022-12-08T15:23:42;3.43;;;1.80;;
21258;SDS011;10787;53.364;-1.480;2022-12-08T15:26:07;4.23;;;1.60;;
21258;SDS011;10787;53.364;-1.480;2022-12-08T15:28:42;6.27;;;1.87;;
21258;SDS011;10787;53.364;-1.480;2022-12-08T15:31:09;4.30;;;1.80;;
21258;SDS011;10787;53.364;-1.480;2022-12-08T15:33:35;3.57;;;1.77;;
21258;SDS011;10787;53.364;-1.480;2022-12-08T15:36:01;5.00;;;1.80;;
21258;SDS011;10787;53.364;-1.480;2022-12-08T15:38:28;7.77;;;2.50;;
21258;SDS011;10787;53.364;-1.480;2022-12-08T15:40:54;8.13;;;3.37;;
21258;SDS011;10787;53.364;-1.480;2022-12-08T15:43:22;7.67;;;3.43;;
21258;SDS011;10787;53.364;-1.480;2022-12-08T15:45:51;7.20;;;2.97;;
21258;SDS011;10787;53.364;-1.480;2022-12-08T15:48:23;5.87;;;2.70;;
21258;SDS011;10787;53.364;-1.480;2022-12-08T15:50:51;6.30;;;2.30;;
21258;SDS011;10787;53.364;-1.480;2022-12-08T15:53:18;7.60;;;2.73;;
21258;SDS011;10787;53.364;-1.480;2022-12-08T15:55:44;6.67;;;2.67;;
21258;SDS011;10787;53.364;-1.480;2022-12-08T15:58:20;5.10;;;2.53;;
21258;SDS011;10787;53.364;-1.480;2022-12-08T16:00:50;12.20;;;6.50;;
21258;SDS011;10787;53.364;-1.480;2022-12-08T16:03:23;11.50;;;5.90;;
21258;SDS011;10787;53.364;-1.480;2022-12-08T16:05:53;11.33;;;5.67;;
21258;SDS011;10787;53.364;-1.480;2022-12-08T16:08:22;13.93;;;6.80;;
21258;SDS011;10787;53.364;-1.480;2022-12-08T16:10:48;8.90;;;3.97;;
21258;SDS011;10787;53.364;-1.480;2022-12-08T16:16:03;12.30;;;7.07;;
21258;SDS011;10787;53.364;-1.480;2022-12-08T16:18:32;13.47;;;6.83;;
21258;SDS011;10787;53.364;-1.480;2022-12-08T16:21:01;13.23;;;6.30;;
21258;SDS011;10787;53.364;-1.480;2022-12-08T16:23:27;14.00;;;5.63;;
21258;SDS011;10787;53.364;-1.480;2022-12-08T16:25:53;12.87;;;6.50;;
21258;SDS011;10787;53.364;-1.480;2022-12-08T16:28:20;10.73;;;4.57;;
21258;SDS011;10787;53.364;-1.480;2022-12-08T16:30:46;9.17;;;5.33;;
21258;SDS011;10787;53.364;-1.480;2022-12-08T16:33:12;9.10;;;4.93;;